Time;durP1;ratioP1;P1;durP2;ratioP2;P2;SDS_P1;SDS_P2;PMS_P1;PMS_P2;Temp;Humidity;BMP_temperature;BMP_pressure;BME280_temperature;BME280_humidity;BME280_pressure;Samples;Min_cycle;Max_cycle;Signal;HPM_P1;HPM_P2
2024/01/05 00:02:09;;;;;;;7.38;3.08;;;8.40;95.80;;;;;;5053506;28;20025;-34
2024/01/05 00:04:35;;;;;;;9.65;3.58;;;8.40;95.60;;;;;;5053579;28;20028;-34
2024/01/05 00:07:01;;;;;;;9.23;3.05;;;8.40;95.60;;;;;;5053737;28;20028;-34
2024/01/05 00:09:26;;;;;;;7.63;3.50;;;8.40;95.60;;;;;;5053450;28;20393;-33
2024/01/05 00:11:52;;;;;;;10.80;3.67;;;8.40;95.60;;;;;;5053274;28;20031;-34
2024/01/05 00:14:17;;;;;;;8.25;3.88;;;8.40;95.60;;;;;;5053476;28;20437;-34
2024/01/05 00:16:43;;;;;;;9.73;3.50;;;8.40;95.60;;;;;;5053637;28;20036;-34
2024/01/05 00:19:09;;;;;;;10.88;4.13;;;8.40;95.60;;;;;;5053190;28;20045;-34
2024/01/05 00:21:35;;;;;;;9.02;3.70;;;8.40;95.70;;;;;;5052754;28;20025;-34
2024/01/05 00:24:00;;;;;;;7.82;3.85;;;8.40;95.60;;;;;;5053106;28;20033;-33
2024/01/05 00:26:26;;;;;;;13.00;3.65;;;8.40;95.70;;;;;;5053166;28;20059;-34
2024/01/05 00:28:51;;;;;;;7.60;3.83;;;8.40;95.80;;;;;;5053038;28;20048;-34
2024/01/05 00:31:18;;;;;;;8.63;4.07;;;8.40;95.80;;;;;;5053324;28;20009;-34
2024/01/05 00:33:44;;;;;;;14.25;5.30;;;8.40;95.80;;;;;;5052823;28;20512;-34
2024/01/05 00:36:10;;;;;;;9.20;5.10;;;8.40;95.90;;;;;;5053283;28;20112;-33
2024/01/05 00:38:36;;;;;;;11.82;5.28;;;8.40;95.80;;;;;;5053567;28;20410;-34
2024/01/05 00:41:02;;;;;;;11.07;5.22;;;8.40;95.80;;;;;;5051528;28;20086;-34
2024/01/05 00:43:28;;;;;;;11.52;5.47;;;8.40;95.80;;;;;;5053169;28;20055;-34
2024/01/05 00:45:55;;;;;;;8.60;5.07;;;8.40;95.80;;;;;;5052628;28;20048;-34
2024/01/05 00:48:21;;;;;;;8.48;5.28;;;8.40;95.80;;;;;;5051633;28;20029;-34
2024/01/05 00:50:47;;;;;;;15.45;5.80;;;8.40;95.90;;;;;;5052687;28;20028;-34
2024/01/05 00:53:13;;;;;;;10.48;5.45;;;8.50;95.90;;;;;;5052661;28;20017;-34
2024/01/05 00:55:38;;;;;;;12.70;5.57;;;8.50;95.90;;;;;;5052589;28;20397;-33
2024/01/05 00:58:05;;;;;;;10.32;5.30;;;8.50;95.90;;;;;;5052399;28;20029;-34
2024/01/05 01:00:30;;;;;;;12.73;5.43;;;8.60;95.90;;;;;;5052452;28;20433;-34
2024/01/05 01:02:56;;;;;;;12.48;5.45;;;8.50;95.80;;;;;;5052349;28;20025;-34
2024/01/05 01:05:22;;;;;;;11.50;5.15;;;8.60;95.80;;;;;;5052342;28;20033;-33
2024/01/05 01:07:48;;;;;;;14.85;5.03;;;8.50;95.80;;;;;;5052683;28;20086;-33
2024/01/05 01:10:13;;;;;;;11.38;4.40;;;8.60;95.80;;;;;;5052299;28;20059;-34
2024/01/05 01:12:39;;;;;;;11.13;4.32;;;8.60;95.80;;;;;;5052145;28;20108;-34
2024/01/05 01:15:05;;;;;;;12.00;4.20;;;8.60;95.80;;;;;;5052398;28;20036;-34
2024/01/05 01:17:31;;;;;;;12.20;4.82;;;8.60;95.80;;;;;;5052394;28;20051;-33
2024/01/05 01:19:57;;;;;;;12.75;4.50;;;8.60;95.80;;;;;;5052179;28;20469;-34
2024/01/05 01:22:23;;;;;;;12.52;4.35;;;8.60;95.80;;;;;;5052089;28;20025;-34
2024/01/05 01:24:48;;;;;;;10.85;3.90;;;8.60;95.80;;;;;;5052153;28;20100;-33
2024/01/05 01:27:15;;;;;;;10.35;4.20;;;8.60;95.80;;;;;;5052121;28;20028;-34
2024/01/05 01:29:41;;;;;;;12.23;3.92;;;8.50;95.80;;;;;;5051990;28;20020;-33
2024/01/05 01:32:09;;;;;;;9.85;4.40;;;8.50;95.90;;;;;;5051306;28;20464;-33
2024/01/05 01:34:35;;;;;;;10.55;4.22;;;8.50;95.90;;;;;;5051776;28;20049;-34
2024/01/05 01:37:00;;;;;;;8.85;4.05;;;8.50;95.90;;;;;;5051870;28;20040;-34
2024/01/05 01:39:26;;;;;;;10.50;4.57;;;8.50;95.90;;;;;;5051927;28;20542;-34
2024/01/05 01:41:51;;;;;;;12.63;4.70;;;8.50;95.90;;;;;;5051513;28;20155;-33
2024/01/05 01:44:17;;;;;;;12.55;4.55;;;8.40;95.90;;;;;;5051867;28;20051;-34
2024/01/05 01:46:43;;;;;;;9.98;4.35;;;8.40;96.00;;;;;;5051916;28;20051;-34
2024/01/05 01:49:09;;;;;;;12.55;5.07;;;8.40;96.00;;;;;;5052114;28;20385;-33
2024/01/05 01:51:35;;;;;;;11.68;4.57;;;8.40;96.10;;;;;;5051778;28;20021;-34
2024/01/05 01:54:04;;;;;;;11.85;4.70;;;8.30;96.10;;;;;;5052247;28;20025;-34
2024/01/05 01:56:30;;;;;;;11.40;4.95;;;8.30;96.10;;;;;;5051645;28;20017;-34
2024/01/05 01:58:56;;;;;;;13.70;5.35;;;8.30;96.10;;;;;;5051438;28;20495;-34
2024/01/05 02:01:22;;;;;;;11.32;4.88;;;8.30;96.10;;;;;;5051216;28;20120;-33
2024/01/05 02:03:48;;;;;;;11.45;4.93;;;8.30;96.10;;;;;;5051375;28;20067;-34
2024/01/05 02:06:13;;;;;;;11.77;5.20;;;8.30;96.10;;;;;;5051377;28;20017;-34
2024/01/05 02:08:39;;;;;;;11.68;4.78;;;8.40;96.20;;;;;;5051562;28;20029;-33
2024/01/05 02:11:05;;;;;;;8.32;4.10;;;8.40;96.20;;;;;;5051780;28;20017;-33
2024/01/05 02:13:31;;;;;;;9.32;4.65;;;8.40;96.10;;;;;;5051677;28;20022;-34
2024/01/05 02:15:57;;;;;;;10.68;4.20;;;8.40;96.10;;;;;;5051735;28;20079;-34
2024/01/05 02:18:23;;;;;;;10.75;4.55;;;8.40;96.10;;;;;;5050087;28;20469;-34
2024/01/05 02:20:48;;;;;;;8.35;3.88;;;8.50;96.10;;;;;;5051296;28;20029;-34
2024/01/05 02:23:27;;;;;;;10.40;4.20;;;8.50;96.10;;;;;;5051406;28;20028;-34
2024/01/05 02:25:56;;;;;;;12.40;3.80;;;8.50;96.00;;;;;;5051611;28;20128;-33
2024/01/05 02:28:22;;;;;;;10.55;4.00;;;8.50;96.00;;;;;;5051349;28;20040;-34
2024/01/05 02:30:48;;;;;;;6.53;3.03;;;8.50;96.00;;;;;;5049863;28;20059;-34
2024/01/05 02:33:13;;;;;;;8.32;3.28;;;8.50;96.00;;;;;;5051382;28;20616;-34
2024/01/05 02:35:39;;;;;;;8.73;2.70;;;8.50;96.00;;;;;;5051246;28;20060;-35
2024/01/05 02:38:06;;;;;;;8.75;3.08;;;8.60;96.00;;;;;;5051269;28;20022;-34
2024/01/05 02:40:31;;;;;;;9.73;2.40;;;8.50;96.00;;;;;;5051046;28;20025;-34
2024/01/05 02:42:57;;;;;;;9.68;2.53;;;8.50;96.00;;;;;;5051951;28;20028;-34
2024/01/05 02:45:24;;;;;;;7.72;2.35;;;8.60;96.00;;;;;;5054980;28;20061;-33
2024/01/05 02:47:50;;;;;;;6.32;2.17;;;8.60;96.00;;;;;;5055437;28;20099;-33
2024/01/05 02:50:16;;;;;;;6.45;2.50;;;8.60;96.10;;;;;;5054952;28;20415;-33
2024/01/05 02:52:42;;;;;;;7.10;2.20;;;8.60;96.10;;;;;;5054736;28;20025;-33
2024/01/05 02:55:10;;;;;;;6.22;2.05;;;8.70;96.10;;;;;;5055216;28;20029;-33
2024/01/05 02:57:36;;;;;;;3.95;1.90;;;8.70;96.10;;;;;;5054764;28;20021;-33
2024/01/05 03:00:03;;;;;;;6.10;2.25;;;8.70;96.10;;;;;;5054957;28;20370;-33
2024/01/05 03:02:29;;;;;;;6.35;2.30;;;8.70;96.10;;;;;;5054412;28;20028;-34
2024/01/05 03:04:54;;;;;;;7.15;2.30;;;8.70;96.10;;;;;;5053359;28;20063;-33
2024/01/05 03:07:20;;;;;;;9.32;1.98;;;8.70;96.10;;;;;;5054625;28;20021;-33
2024/01/05 03:09:45;;;;;;;5.50;2.05;;;8.70;96.10;;;;;;5054835;28;20041;-33
2024/01/05 03:12:11;;;;;;;5.70;2.10;;;8.70;96.10;;;;;;5054740;28;20017;-33
2024/01/05 03:14:36;;;;;;;8.10;2.47;;;8.70;96.10;;;;;;5054830;28;20028;-33
2024/01/05 03:17:02;;;;;;;6.55;2.63;;;8.70;96.20;;;;;;5054488;28;20036;-34
2024/01/05 03:19:28;;;;;;;5.50;2.13;;;8.70;96.20;;;;;;5054530;28;20025;-34
2024/01/05 03:21:54;;;;;;;4.35;1.90;;;8.70;96.20;;;;;;5054222;28;20052;-33
2024/01/05 03:24:20;;;;;;;6.70;1.98;;;8.70;96.20;;;;;;5054277;28;20028;-33
2024/01/05 03:26:45;;;;;;;8.85;2.08;;;8.70;96.30;;;;;;5054039;28;20496;-33
2024/01/05 03:29:11;;;;;;;10.15;2.30;;;8.70;96.30;;;;;;5054161;28;20095;-34
2024/01/05 03:31:37;;;;;;;9.40;2.28;;;8.70;96.30;;;;;;5053920;28;20021;-33
2024/01/05 03:34:02;;;;;;;7.00;1.98;;;8.70;96.30;;;;;;5054218;28;20041;-33
2024/01/05 03:36:28;;;;;;;7.18;2.00;;;8.70;96.30;;;;;;5054099;28;20405;-33
2024/01/05 03:38:54;;;;;;;7.47;1.88;;;8.80;96.40;;;;;;5053847;28;20017;-33
2024/01/05 03:41:20;;;;;;;6.97;2.10;;;8.80;96.40;;;;;;5053936;28;20491;-34
2024/01/05 03:43:45;;;;;;;7.05;1.90;;;8.70;96.40;;;;;;5054270;28;20025;-33
2024/01/05 03:46:12;;;;;;;6.03;1.65;;;8.70;96.80;;;;;;5053893;28;20385;-33
2024/01/05 03:48:38;;;;;;;4.93;2.00;;;8.80;96.70;;;;;;5054009;28;20047;-33
2024/01/05 03:51:05;;;;;;;4.25;1.73;;;8.80;96.80;;;;;;5053939;28;20047;-33
2024/01/05 03:53:30;;;;;;;7.95;1.98;;;8.80;96.90;;;;;;5053842;28;20068;-34
2024/01/05 03:56:00;;;;;;;7.53;1.80;;;8.80;97.10;;;;;;5052612;28;20080;-33
2024/01/05 03:58:25;;;;;;;9.63;2.10;;;8.80;97.30;;;;;;5053367;28;20036;-33
2024/01/05 04:00:51;;;;;;;5.72;1.90;;;8.80;97.30;;;;;;5053578;28;20025;-33
2024/01/05 04:03:19;;;;;;;7.25;2.10;;;8.80;97.40;;;;;;5053448;28;20103;-33
2024/01/05 04:05:45;;;;;;;3.80;1.73;;;8.80;97.50;;;;;;5053448;28;20029;-34
2024/01/05 04:08:11;;;;;;;6.85;1.92;;;8.80;97.60;;;;;;5053586;28;20078;-33
2024/01/05 04:10:37;;;;;;;11.77;2.22;;;8.80;97.70;;;;;;5053220;28;20024;-33
2024/01/05 04:13:03;;;;;;;4.65;1.90;;;8.80;97.80;;;;;;5053624;28;20028;-33
2024/01/05 04:15:30;;;;;;;6.43;1.80;;;8.80;97.90;;;;;;5053733;28;20477;-33
2024/01/05 04:17:56;;;;;;;7.75;2.15;;;8.80;98.00;;;;;;5052504;28;20025;-33
2024/01/05 04:20:22;;;;;;;6.70;2.10;;;8.80;98.00;;;;;;5053174;28;20028;-34
2024/01/05 04:22:47;;;;;;;8.95;2.22;;;8.80;98.00;;;;;;5053173;28;20079;-33
2024/01/05 04:25:13;;;;;;;4.20;1.60;;;8.80;98.10;;;;;;5051779;28;20048;-33
2024/01/05 04:27:39;;;;;;;6.60;1.90;;;8.80;98.20;;;;;;5053264;28;20025;-33
2024/01/05 04:30:05;;;;;;;9.13;2.53;;;8.80;98.30;;;;;;5053069;28;20033;-33
2024/01/05 04:32:31;;;;;;;9.20;2.30;;;8.90;98.40;;;;;;5052974;28;20025;-33
2024/01/05 04:34:56;;;;;;;5.38;2.10;;;8.80;98.40;;;;;;5052734;28;20390;-33
2024/01/05 04:37:22;;;;;;;7.00;2.13;;;8.80;98.40;;;;;;5053009;28;20434;-33
2024/01/05 04:39:47;;;;;;;4.88;2.13;;;8.80;98.50;;;;;;5052944;28;20029;-33
2024/01/05 04:42:14;;;;;;;7.15;2.40;;;8.90;98.70;;;;;;5052648;28;20025;-33
2024/01/05 04:44:40;;;;;;;6.63;2.30;;;8.80;98.60;;;;;;5052744;28;20036;-33
2024/01/05 04:47:05;;;;;;;7.32;1.95;;;8.80;98.70;;;;;;5052649;28;20034;-33
2024/01/05 04:49:33;;;;;;;3.83;1.50;;;8.80;98.70;;;;;;5052856;28;20032;-33
2024/01/05 04:51:59;;;;;;;9.02;2.28;;;8.80;98.80;;;;;;5052544;28;20017;-34
2024/01/05 04:54:25;;;;;;;8.32;2.22;;;8.80;98.90;;;;;;5052494;28;20082;-33
2024/01/05 04:56:51;;;;;;;7.07;1.98;;;8.80;98.90;;;;;;5052733;28;20021;-33
2024/01/05 04:59:17;;;;;;;11.82;2.40;;;8.80;99.00;;;;;;5052622;28;20060;-34
2024/01/05 05:01:42;;;;;;;11.13;2.70;;;8.80;99.00;;;;;;5052400;28;20063;-34
2024/01/05 05:04:08;;;;;;;7.78;1.90;;;8.80;99.10;;;;;;5052388;28;20572;-34
2024/01/05 05:06:34;;;;;;;5.70;1.65;;;8.80;99.20;;;;;;5051974;28;20025;-34
2024/01/05 05:08:59;;;;;;;8.10;2.25;;;8.80;99.20;;;;;;5052266;28;20028;-33
2024/01/05 05:11:25;;;;;;;8.23;2.50;;;8.80;99.20;;;;;;5052383;28;20104;-34
2024/01/05 05:13:50;;;;;;;6.75;2.10;;;8.80;99.20;;;;;;5052497;28;20017;-34
2024/01/05 05:16:16;;;;;;;4.88;2.00;;;8.80;99.30;;;;;;5052474;28;20042;-33
2024/01/05 05:18:41;;;;;;;6.57;2.20;;;8.80;99.30;;;;;;5052147;28;20025;-34
2024/01/05 05:21:07;;;;;;;4.65;2.13;;;8.80;99.30;;;;;;5052348;28;20071;-34
2024/01/05 05:23:33;;;;;;;5.68;1.75;;;8.80;99.30;;;;;;5051967;28;20025;-34
2024/01/05 05:25:59;;;;;;;6.85;1.75;;;8.80;99.30;;;;;;5051912;28;20032;-34
2024/01/05 05:28:24;;;;;;;6.35;2.40;;;8.80;99.40;;;;;;5051449;28;20043;-34
2024/01/05 05:30:50;;;;;;;11.40;2.40;;;8.80;99.40;;;;;;5051833;28;20104;-33
2024/01/05 05:33:16;;;;;;;8.30;2.55;;;8.80;99.40;;;;;;5051729;28;20040;-33
2024/01/05 05:35:41;;;;;;;8.07;2.10;;;8.80;99.50;;;;;;5051887;28;20465;-33
2024/01/05 05:38:07;;;;;;;6.93;1.95;;;8.80;99.50;;;;;;5051849;28;20057;-33
2024/01/05 05:40:32;;;;;;;5.15;1.85;;;8.80;99.50;;;;;;5051715;28;20271;-33
2024/01/05 05:42:58;;;;;;;6.25;1.92;;;8.80;99.50;;;;;;5051758;28;20033;-33
2024/01/05 05:45:24;;;;;;;5.45;1.98;;;8.80;99.50;;;;;;5051627;28;20047;-34
2024/01/05 05:47:51;;;;;;;6.13;1.92;;;8.80;99.60;;;;;;5051696;28;20025;-34
2024/01/05 05:50:17;;;;;;;5.22;1.83;;;8.80;99.60;;;;;;5051939;28;20017;-34
2024/01/05 05:52:43;;;;;;;6.35;2.42;;;8.80;99.50;;;;;;5051791;28;20021;-33
2024/01/05 05:55:12;;;;;;;6.28;2.58;;;8.80;99.60;;;;;;5051781;28;20311;-33
2024/01/05 05:57:40;;;;;;;7.10;2.50;;;8.80;99.50;;;;;;5051430;28;20025;-33
2024/01/05 06:00:07;;;;;;;9.00;2.15;;;8.80;99.50;;;;;;5051492;28;20036;-33
2024/01/05 06:02:32;;;;;;;8.70;2.13;;;8.80;99.50;;;;;;5051150;28;20029;-34
2024/01/05 06:04:58;;;;;;;7.10;2.00;;;8.80;99.40;;;;;;5051468;28;20629;-34
2024/01/05 06:07:24;;;;;;;9.00;1.80;;;8.80;99.40;;;;;;5051721;28;20031;-34
2024/01/05 06:09:50;;;;;;;6.65;2.08;;;8.80;99.40;;;;;;5051406;28;20024;-33
2024/01/05 06:12:16;;;;;;;6.60;2.00;;;8.80;99.40;;;;;;5051491;28;20099;-33
2024/01/05 06:14:42;;;;;;;6.15;1.92;;;8.80;99.30;;;;;;5051670;28;20035;-33
2024/01/05 06:17:08;;;;;;;6.53;2.08;;;8.80;99.30;;;;;;5050585;28;20540;-33
2024/01/05 06:19:33;;;;;;;8.25;1.80;;;8.80;99.40;;;;;;5055222;28;20028;-33
2024/01/05 06:21:59;;;;;;;3.95;1.17;;;8.80;99.30;;;;;;5055398;28;20029;-33
2024/01/05 06:24:26;;;;;;;5.78;1.77;;;8.80;99.40;;;;;;5055296;28;20071;-33
2024/01/05 06:26:51;;;;;;;6.57;2.08;;;8.80;99.40;;;;;;5055655;28;20438;-34
2024/01/05 06:29:17;;;;;;;6.30;2.10;;;8.80;99.40;;;;;;5055343;28;20127;-33
2024/01/05 06:31:43;;;;;;;3.85;1.30;;;8.80;99.40;;;;;;5055107;28;20028;-33
2024/01/05 06:34:08;;;;;;;6.68;2.00;;;8.80;99.40;;;;;;5055385;28;20048;-35
2024/01/05 06:36:34;;;;;;;4.53;1.70;;;8.80;99.40;;;;;;5055312;28;20029;-33
2024/01/05 06:39:00;;;;;;;7.28;1.98;;;8.80;99.50;;;;;;5055189;28;20107;-33
2024/01/05 06:41:25;;;;;;;10.32;2.03;;;8.80;99.50;;;;;;5055006;28;20021;-32
2024/01/05 06:43:51;;;;;;;6.32;1.70;;;8.80;99.50;;;;;;5055220;28;20021;-34
2024/01/05 06:46:17;;;;;;;3.53;1.58;;;8.80;99.50;;;;;;5055263;28;20021;-34
2024/01/05 06:48:43;;;;;;;5.18;1.48;;;8.80;99.60;;;;;;5055176;28;20020;-34
2024/01/05 06:51:08;;;;;;;8.10;1.90;;;8.80;99.60;;;;;;5054815;28;20422;-33
2024/01/05 06:53:34;;;;;;;5.18;1.42;;;8.80;99.60;;;;;;5055213;28;20373;-32
2024/01/05 06:56:00;;;;;;;7.32;1.60;;;8.80;99.60;;;;;;5054970;28;20021;-33
2024/01/05 06:58:27;;;;;;;5.03;1.52;;;8.80;99.60;;;;;;5055139;28;20088;-33
2024/01/05 07:00:53;;;;;;;5.93;1.55;;;8.80;99.70;;;;;;5054639;28;20064;-33
2024/01/05 07:03:18;;;;;;;3.13;1.23;;;8.80;99.70;;;;;;5054697;28;20397;-33
2024/01/05 07:05:44;;;;;;;4.63;1.50;;;8.80;99.70;;;;;;5054555;28;20024;-33
2024/01/05 07:08:10;;;;;;;4.30;1.60;;;8.80;99.60;;;;;;5054644;28;20115;-33
2024/01/05 07:10:35;;;;;;;5.38;1.40;;;8.80;99.60;;;;;;5054599;28;20047;-33
2024/01/05 07:13:01;;;;;;;4.07;1.25;;;8.80;99.60;;;;;;5054767;28;20446;-33
2024/01/05 07:15:29;;;;;;;4.25;1.33;;;8.80;99.50;;;;;;5054745;28;20082;-33
2024/01/05 07:17:54;;;;;;;3.47;1.15;;;8.80;99.50;;;;;;5054501;28;20025;-33
2024/01/05 07:20:20;;;;;;;4.78;1.20;;;8.70;99.50;;;;;;5054467;28;20051;-33
2024/01/05 07:22:45;;;;;;;6.22;1.55;;;8.80;99.50;;;;;;5054315;28;20029;-34
2024/01/05 07:25:11;;;;;;;4.53;1.40;;;8.80;99.50;;;;;;5054634;28;20048;-34
2024/01/05 07:27:37;;;;;;;4.35;1.88;;;8.80;99.40;;;;;;5054524;28;20036;-34
2024/01/05 07:30:06;;;;;;;3.47;1.30;;;8.80;99.40;;;;;;5054227;28;20025;-34
2024/01/05 07:32:32;;;;;;;3.70;1.25;;;8.80;99.40;;;;;;5054212;28;20025;-33
2024/01/05 07:34:58;;;;;;;4.70;1.42;;;8.80;99.30;;;;;;5054167;28;20045;-34
2024/01/05 07:37:25;;;;;;;6.03;1.63;;;8.80;99.30;;;;;;5054333;28;20053;-34
2024/01/05 07:39:50;;;;;;;6.60;1.60;;;8.80;99.30;;;;;;5054045;28;20523;-33
2024/01/05 07:42:16;;;;;;;4.65;1.50;;;8.80;99.20;;;;;;5053963;28;20029;-33
2024/01/05 07:44:42;;;;;;;4.75;1.50;;;8.80;99.10;;;;;;5054325;28;20021;-34
2024/01/05 07:47:09;;;;;;;3.92;1.50;;;8.80;99.10;;;;;;5054066;28;20061;-34
2024/01/05 07:49:34;;;;;;;4.03;1.30;;;8.80;99.10;;;;;;5054180;28;20029;-34
2024/01/05 07:52:00;;;;;;;3.60;1.70;;;8.80;99.00;;;;;;5053761;28;20017;-34
2024/01/05 07:54:26;;;;;;;4.72;1.35;;;8.80;99.00;;;;;;5053901;28;20025;-33
2024/01/05 07:56:51;;;;;;;4.28;1.10;;;8.80;99.00;;;;;;5053598;28;20112;-34
2024/01/05 07:59:17;;;;;;;1.73;1.23;;;8.80;99.20;;;;;;5054019;28;20024;-34
2024/01/05 08:01:43;;;;;;;2.67;1.15;;;8.70;98.90;;;;;;5053682;28;20021;-34
2024/01/05 08:04:09;;;;;;;2.50;0.98;;;8.70;98.90;;;;;;5052445;28;20067;-33
2024/01/05 08:06:34;;;;;;;2.33;1.08;;;8.70;98.80;;;;;;5053454;28;20028;-34
2024/01/05 08:09:00;;;;;;;4.05;0.93;;;8.70;98.80;;;;;;5053588;28;20029;-34
2024/01/05 08:11:26;;;;;;;1.92;0.70;;;8.70;98.50;;;;;;5053516;28;20021;-34
2024/01/05 08:13:52;;;;;;;1.67;0.60;;;8.70;98.40;;;;;;5053533;28;20031;-34
2024/01/05 08:16:17;;;;;;;2.00;1.23;;;8.70;98.30;;;;;;5053671;28;20025;-35
2024/01/05 08:18:43;;;;;;;1.77;0.95;;;8.60;98.20;;;;;;5053550;28;20029;-34
2024/01/05 08:21:09;;;;;;;1.65;0.60;;;8.60;98.10;;;;;;5053458;28;20065;-33
2024/01/05 08:23:36;;;;;;;0.35;0.35;;;8.60;97.90;;;;;;5053279;28;20075;-34
2024/01/05 08:26:05;;;;;;;1.50;0.43;;;8.60;97.80;;;;;;5053642;28;20107;-33
2024/01/05 08:28:30;;;;;;;1.17;0.40;;;8.60;97.80;;;;;;5053277;28;20055;-34
2024/01/05 08:30:57;;;;;;;0.80;0.30;;;8.60;97.80;;;;;;5053337;28;20057;-34
2024/01/05 08:33:22;;;;;;;1.52;0.40;;;8.60;97.80;;;;;;5053330;28;20545;-34
2024/01/05 08:35:48;;;;;;;3.67;0.52;;;8.60;97.60;;;;;;5053424;28;20096;-34
2024/01/05 08:38:14;;;;;;;1.23;0.60;;;8.50;97.60;;;;;;5053073;28;20028;-34
2024/01/05 08:40:40;;;;;;;0.50;0.40;;;8.50;97.50;;;;;;5052419;28;20033;-34
2024/01/05 08:43:07;;;;;;;1.95;0.40;;;8.50;97.40;;;;;;5052975;28;20381;-34
2024/01/05 08:45:34;;;;;;;0.77;0.50;;;8.50;97.40;;;;;;5051508;28;20110;-35
2024/01/05 08:48:00;;;;;;;1.85;0.30;;;8.50;97.30;;;;;;5053198;28;20021;-34
2024/01/05 08:50:26;;;;;;;1.05;0.40;;;8.50;97.30;;;;;;5053041;28;20399;-34
2024/01/05 08:52:52;;;;;;;1.33;0.43;;;8.50;97.20;;;;;;5051624;28;20623;-33
2024/01/05 08:55:18;;;;;;;0.52;0.40;;;8.40;97.00;;;;;;5052801;28;20071;-33
2024/01/05 08:57:45;;;;;;;0.73;0.50;;;8.40;97.00;;;;;;5052632;28;20029;-34
2024/01/05 09:00:11;;;;;;;1.17;0.40;;;8.40;96.90;;;;;;5053197;28;20021;-33
2024/01/05 09:02:38;;;;;;;0.68;0.40;;;8.40;96.90;;;;;;5052676;28;20520;-34
2024/01/05 09:05:04;;;;;;;0.60;0.40;;;8.40;96.90;;;;;;5052412;28;20032;-34
2024/01/05 09:07:31;;;;;;;1.70;0.43;;;8.40;96.90;;;;;;5052669;28;20032;-34
2024/01/05 09:09:57;;;;;;;0.43;0.43;;;8.40;96.90;;;;;;5052500;28;20374;-35
2024/01/05 09:12:22;;;;;;;1.27;0.55;;;8.40;97.00;;;;;;5052601;28;20040;-34
2024/01/05 09:14:48;;;;;;;4.85;0.60;;;8.30;97.00;;;;;;5052759;28;20511;-33
2024/01/05 09:17:13;;;;;;;1.45;0.60;;;8.30;96.90;;;;;;5052647;28;20036;-34
2024/01/05 09:19:42;;;;;;;0.77;0.50;;;8.30;96.90;;;;;;5052409;28;20436;-33
2024/01/05 09:22:08;;;;;;;1.77;0.52;;;8.20;96.90;;;;;;5052363;28;20504;-33
2024/01/05 09:24:34;;;;;;;3.58;0.98;;;8.20;96.90;;;;;;5052332;28;20029;-34
2024/01/05 09:27:02;;;;;;;1.27;0.50;;;8.20;96.90;;;;;;5052204;28;20025;-34
2024/01/05 09:29:28;;;;;;;0.93;0.57;;;8.20;96.90;;;;;;5052394;28;20021;-34
2024/01/05 09:31:54;;;;;;;0.85;0.60;;;8.20;96.90;;;;;;5052073;28;20108;-33
2024/01/05 09:34:19;;;;;;;0.60;0.50;;;8.20;96.90;;;;;;5050633;28;20129;-33
2024/01/05 09:36:45;;;;;;;1.73;0.70;;;8.20;96.80;;;;;;5051986;28;20033;-33
2024/01/05 09:39:14;;;;;;;2.08;0.60;;;8.20;96.80;;;;;;5052344;28;20496;-33
2024/01/05 09:41:43;;;;;;;1.38;0.50;;;8.20;96.70;;;;;;5051815;28;20425;-34
2024/01/05 09:44:12;;;;;;;1.15;0.47;;;8.10;96.80;;;;;;5052031;28;20460;-34
2024/01/05 09:46:42;;;;;;;0.40;0.40;;;8.10;96.80;;;;;;5050446;28;20028;-33
2024/01/05 09:49:08;;;;;;;1.23;0.40;;;8.10;96.80;;;;;;5050760;28;20082;-34
2024/01/05 09:51:35;;;;;;;0.45;0.45;;;8.00;96.60;;;;;;5050139;28;20021;-34
2024/01/05 09:54:01;;;;;;;0.65;0.38;;;8.00;96.60;;;;;;5051328;28;20074;-33
2024/01/05 09:56:27;;;;;;;0.40;0.40;;;8.00;96.60;;;;;;5051980;28;20346;-33
2024/01/05 09:58:54;;;;;;;2.15;0.40;;;8.00;96.60;;;;;;5051642;28;20045;-34
2024/01/05 10:01:25;;;;;;;0.45;0.40;;;8.00;96.70;;;;;;5051348;28;20110;-33
2024/01/05 10:03:56;;;;;;;0.30;0.30;;;8.00;96.60;;;;;;5051677;28;20033;-33
2024/01/05 10:06:21;;;;;;;0.75;0.40;;;8.00;96.60;;;;;;5051562;28;20029;-34
2024/01/05 10:08:54;;;;;;;0.30;0.30;;;8.00;96.50;;;;;;5050377;28;20017;-34
2024/01/05 10:11:30;;;;;;;0.90;0.30;;;7.90;96.40;;;;;;5051731;28;20033;-34
2024/01/05 10:14:03;;;;;;;0.63;0.40;;;7.90;96.40;;;;;;5051975;28;20029;-34
2024/01/05 10:16:39;;;;;;;2.30;0.40;;;7.90;96.50;;;;;;5051823;28;20043;-33
2024/01/05 10:19:19;;;;;;;0.50;0.22;;;7.90;96.40;;;;;;5051543;28;20037;-33
2024/01/05 10:21:47;;;;;;;1.65;0.30;;;7.90;96.30;;;;;;5051550;28;20040;-34
2024/01/05 10:24:25;;;;;;;0.20;0.20;;;7.90;96.30;;;;;;5051733;28;20503;-32
2024/01/05 10:27:10;;;;;;;0.40;0.40;;;7.90;96.30;;;;;;5051336;28;20036;-33
2024/01/05 10:29:43;;;;;;;1.20;0.88;;;7.90;96.30;;;;;;5050128;28;20021;-36
2024/01/05 10:32:17;;;;;;;1.13;0.52;;;7.80;96.40;;;;;;5051211;28;20124;-35
2024/01/05 10:34:45;;;;;;;1.00;0.70;;;7.90;96.40;;;;;;5051188;28;20106;-36
2024/01/05 10:37:10;;;;;;;1.42;0.80;;;7.90;96.40;;;;;;5050114;28;20493;-36
2024/01/05 10:39:36;;;;;;;1.58;0.80;;;7.90;96.30;;;;;;5051235;28;20075;-45
2024/01/05 10:42:21;;;;;;;1.25;0.80;;;7.90;96.30;;;;;;5051605;28;20033;-37
2024/01/05 10:44:57;;;;;;;0.93;0.80;;;8.00;96.30;;;;;;5051277;28;20029;-36
2024/01/05 10:47:25;;;;;;;1.75;0.85;;;8.00;96.20;;;;;;5051582;28;20029;-36
2024/01/05 10:49:54;;;;;;;1.10;1.00;;;7.90;96.30;;;;;;5051492;28;20505;-36
2024/01/05 10:52:25;;;;;;;1.30;1.10;;;7.90;96.00;;;;;;5051465;28;20029;-35
2024/01/05 10:54:52;;;;;;;1.63;1.00;;;7.90;96.10;;;;;;5051501;28;20021;-36
2024/01/05 10:57:18;;;;;;;1.30;0.98;;;7.90;96.10;;;;;;5049768;28;20064;-34
2024/01/05 10:59:48;;;;;;;1.55;0.80;;;7.90;96.10;;;;;;5051204;28;20043;-34
2024/01/05 11:02:38;;;;;;;2.50;0.98;;;8.00;96.00;;;;;;5050830;28;20100;-35
2024/01/05 11:05:09;;;;;;;2.42;0.90;;;7.90;96.00;;;;;;5053688;28;20043;-33
2024/01/05 11:07:36;;;;;;;1.60;1.30;;;7.90;96.10;;;;;;5053454;28;20052;-34
2024/01/05 11:10:11;;;;;;;1.40;0.95;;;7.90;96.10;;;;;;5054802;28;20025;-34
2024/01/05 11:13:05;;;;;;;1.17;1.02;;;7.90;96.10;;;;;;5054550;28;20064;-33
2024/01/05 11:15:58;;;;;;;1.05;0.90;;;7.90;96.10;;;;;;5054675;28;20064;-33
2024/01/05 11:18:47;;;;;;;1.35;1.17;;;7.80;96.00;;;;;;5053390;28;20465;-34
2024/01/05 11:21:48;;;;;;;3.95;1.30;;;7.80;96.00;;;;;;5054516;28;20078;-33
2024/01/05 11:24:15;;;;;;;2.30;1.17;;;7.80;96.00;;;;;;5053008;28;20041;-34
2024/01/05 11:26:44;;;;;;;1.65;1.10;;;7.80;96.00;;;;;;5054850;28;20029;-34
2024/01/05 11:29:13;;;;;;;1.27;1.15;;;7.80;96.00;;;;;;5054692;28;20389;-34
2024/01/05 11:31:47;;;;;;;1.55;1.25;;;7.90;95.90;;;;;;5054628;28;20358;-34
2024/01/05 11:34:28;;;;;;;1.73;1.27;;;7.90;96.00;;;;;;5054140;28;20053;-34
2024/01/05 11:36:54;;;;;;;1.70;1.40;;;7.80;95.90;;;;;;5054362;28;20520;-34
2024/01/05 11:39:45;;;;;;;1.52;1.30;;;7.80;95.70;;;;;;5054558;28;20028;-34
2024/01/05 11:42:31;;;;;;;1.95;1.30;;;7.90;95.70;;;;;;5052705;28;20037;-33
2024/01/05 11:45:11;;;;;;;1.38;1.27;;;7.80;95.70;;;;;;5052881;28;20029;-33
2024/01/05 11:47:47;;;;;;;2.45;1.73;;;7.80;95.70;;;;;;5054292;28;20025;-33
2024/01/05 11:50:30;;;;;;;1.58;1.30;;;7.80;95.60;;;;;;5054344;28;20033;-34
2024/01/05 11:53:15;;;;;;;;;;;7.80;95.70;;;;;;5054742;28;20381;-34
2024/01/05 11:55:52;;;;;;;3.47;1.40;;;7.80;95.70;;;;;;5054229;28;20280;-34
2024/01/05 11:58:23;;;;;;;2.17;1.40;;;7.80;95.60;;;;;;5054055;28;20555;-34
2024/01/05 12:00:50;;;;;;;1.42;1.30;;;7.80;95.60;;;;;;5052402;28;20078;-34
2024/01/05 12:03:17;;;;;;;1.85;1.35;;;7.80;95.60;;;;;;5053958;28;20028;-34
2024/01/05 12:05:43;;;;;;;2.47;1.40;;;7.80;95.60;;;;;;5053992;28;20540;-34
2024/01/05 12:08:13;;;;;;;2.08;1.40;;;7.80;95.60;;;;;;5053689;28;20112;-34
2024/01/05 12:10:40;;;;;;;1.83;1.38;;;7.80;95.60;;;;;;5052184;28;20032;-33
2024/01/05 12:13:06;;;;;;;1.67;1.30;;;7.80;95.60;;;;;;5053833;28;20021;-34
2024/01/05 12:15:33;;;;;;;2.25;1.38;;;7.80;95.60;;;;;;5052864;28;20025;-34
2024/01/05 12:18:08;;;;;;;3.30;1.35;;;7.90;95.60;;;;;;5053510;28;20033;-34
2024/01/05 12:20:35;;;;;;;2.75;1.42;;;7.90;95.50;;;;;;5053293;28;20059;-34
2024/01/05 12:23:00;;;;;;;1.75;1.17;;;7.90;95.40;;;;;;5053567;28;20052;-34
2024/01/05 12:25:26;;;;;;;1.40;1.30;;;7.90;95.70;;;;;;5053290;28;20025;-33
2024/01/05 12:27:52;;;;;;;2.03;1.30;;;7.90;95.30;;;;;;5053215;28;20028;-34
2024/01/05 12:30:19;;;;;;;3.80;1.23;;;7.90;95.40;;;;;;5053219;28;20043;-34
2024/01/05 12:32:47;;;;;;;1.30;1.20;;;7.90;95.40;;;;;;5053070;28;20025;-33
2024/01/05 12:35:13;;;;;;;1.50;1.15;;;7.90;95.40;;;;;;5053154;28;20390;-34
2024/01/05 12:37:52;;;;;;;1.55;1.45;;;7.90;95.40;;;;;;5053260;28;20037;-34
2024/01/05 12:40:23;;;;;;;2.33;1.42;;;7.90;95.30;;;;;;5053031;28;20040;-34
2024/01/05 12:42:51;;;;;;;1.90;1.50;;;7.90;95.30;;;;;;5053105;28;20029;-34
2024/01/05 12:45:18;;;;;;;1.75;1.38;;;7.90;95.30;;;;;;5053032;28;20133;-34
2024/01/05 12:47:44;;;;;;;1.95;1.40;;;7.90;95.20;;;;;;5051563;28;20033;-33
2024/01/05 12:50:27;;;;;;;2.83;1.55;;;7.90;95.30;;;;;;5053211;28;20029;-34
2024/01/05 12:52:53;;;;;;;2.63;1.60;;;7.90;95.20;;;;;;5052784;28;20036;-34
2024/01/05 12:55:32;;;;;;;2.58;1.52;;;7.90;95.30;;;;;;5052875;28;20037;-34
2024/01/05 12:58:02;;;;;;;2.63;1.52;;;7.90;95.30;;;;;;5052888;28;20060;-34